Time;durP1;ratioP1;P1;durP2;ratioP2;P2;SDS_P1;SDS_P2;PMS_P1;PMS_P2;Temp;Humidity;BMP_temperature;BMP_pressure;BME280_temperature;BME280_humidity;BME280_pressure;Samples;Min_cycle;Max_cycle;Signal;HPM_P1;HPM_P2
2022/09/28 00:01:07;;;;;;;;;;;;;;;;;;5134769;27;2157;-43
2022/09/28 00:03:34;;;;;;;;;;;;;;;;;;5135075;27;1691;-43
2022/09/28 00:06:03;;;;;;;;;;;;;;;;;;5134850;27;1939;-46
2022/09/28 00:08:31;;;;;;;;;;;;;;;;;;5134546;27;1898;-45
2022/09/28 00:10:59;;;;;;;;;;;;;;;;;;5134402;27;2081;-46
2022/09/28 00:13:27;;;;;;;;;;;;;;;;;;5134315;27;2004;-42
2022/09/28 00:16:01;;;;;;;;;;;;;;;;;;5134505;27;1895;-45
2022/09/28 00:18:29;;;;;;;;;;;;;;;;;;5134451;27;1735;-45
2022/09/28 00:21:04;;;;;;;;;;;;;;;;;;5134173;27;1935;-43
2022/09/28 00:23:32;;;;;;;;;;;;;;;;;;5133959;27;1904;-44
2022/09/28 00:26:05;;;;;;;;;;;;;;;;;;5134217;27;2075;-43
2022/09/28 00:28:32;;;;;;;;;;;;;;;;;;5134517;27;1865;-46
2022/09/28 00:30:59;;;;;;;;;;;;;;;;;;5126248;27;2010;-46
2022/09/28 00:33:27;;;;;;;;;;;;;;;;;;5113559;28;1404;-45
2022/09/28 00:35:55;;;;;;;;;;;;;;;;;;5113492;28;1783;-43
2022/09/28 00:38:25;;;;;;;;;;;;;;;;;;5113512;28;2128;-43
2022/09/28 00:40:54;;;;;;;;;;;;;;;;;;5113396;28;1354;-46
2022/09/28 00:43:22;;;;;;;;;;;;;;;;;;5113412;28;2112;-45
2022/09/28 00:45:55;;;;;;;;;;;;;;;;;;5113381;28;2099;-45
2022/09/28 00:48:23;;;;;;;;;;;;;;;;;;5113043;28;1878;-44
2022/09/28 00:50:50;;;;;;;;;;;;;;;;;;5111946;28;2218;-46
2022/09/28 00:53:20;;;;;;;;;;;;;;;;;;5111940;28;1347;-46
2022/09/28 00:55:50;;;;;;;;;;;;;;;;;;5113209;28;1915;-46
2022/09/28 00:58:19;;;;;;;;;;;;;;;;;;5112725;28;2111;-43
2022/09/28 01:00:47;;;;;;;;;;;;;;;;;;5113114;28;1968;-46
2022/09/28 01:03:15;;;;;;;;;;;;;;;;;;5113186;28;1991;-44
2022/09/28 01:05:43;;;;;;;;;;;;;;;;;;5112999;28;2206;-46
2022/09/28 01:08:13;;;;;;;;;;;;;;;;;;5111895;28;2100;-46
2022/09/28 01:10:42;;;;;;;;;;;;;;;;;;5094750;28;1898;-44
2022/09/28 01:13:11;;;;;;;;;;;;;;;;;;5112876;28;1810;-42
2022/09/28 01:15:52;;;;;;;;;;;;;;;;;;5112778;28;2116;-45
2022/09/28 01:18:26;;;;;;;;;;;;;;;;;;5111534;28;2127;-44
2022/09/28 01:20:59;;;;;;;;;;;;;;;;;;5111616;28;1635;-43
2022/09/28 01:23:45;;;;;;;;;;;;;;;;;;5111271;28;1830;-43
2022/09/28 01:26:34;;;;;;;;;;;;;;;;;;5111647;28;2121;-45
2022/09/28 01:29:05;;;;;;;;;;;;;;;;;;5111202;28;1443;-45
2022/09/28 01:31:35;;;;;;;;;;;;;;;;;;5112723;28;1902;-45
2022/09/28 01:34:22;;;;;;;;;;;;;;;;;;5111471;28;1775;-44
2022/09/28 01:36:52;;;;;;;;;;;;;;;;;;5115324;28;2114;-46
2022/09/28 01:39:25;;;;;;;;;;;;;;;;;;5115656;28;1737;-43
2022/09/28 01:41:53;;;;;;;;;;;;;;;;;;5116744;28;1969;-46
2022/09/28 01:44:22;;;;;;;;;;;;;;;;;;5115538;28;1972;-46
2022/09/28 01:46:52;;;;;;;;;;;;;;;;;;5115430;28;2323;-42
2022/09/28 01:49:30;;;;;;;;;;;;;;;;;;5115496;28;1797;-46
2022/09/28 01:52:10;;;;;;;;;;;;;;;;;;5115509;28;1970;-45
2022/09/28 01:54:40;;;;;;;;;;;;;;;;;;5115591;28;2077;-46
2022/09/28 01:57:14;;;;;;;;;;;;;;;;;;5115262;28;1662;-45
2022/09/28 01:59:45;;;;;;;;;;;;;;;;;;5132636;27;1945;-43
2022/09/28 02:02:14;;;;;;;;;;;;;;;;;;5116533;28;1942;-43
2022/09/28 02:04:44;;;;;;;;;;;;;;;;;;5115220;28;1940;-46
2022/09/28 02:07:15;;;;;;;;;;;;;;;;;;5127490;27;1923;-41
2022/09/28 02:09:58;;;;;;;;;;;;;;;;;;5135696;27;1973;-43
2022/09/28 02:12:48;;;;;;;;;;;;;;;;;;5135773;27;1991;-45
2022/09/28 02:15:23;;;;;;;;;;;;;;;;;;5142520;27;2247;-43
2022/09/28 02:17:51;;;;;;;;;;;;;;;;;;5135476;27;2363;-45
2022/09/28 02:20:20;;;;;;;;;;;;;;;;;;5135289;27;2020;-45
2022/09/28 02:22:52;;;;;;;;;;;;;;;;;;5135454;27;2121;-44
2022/09/28 02:25:46;;;;;;;;;;;;;;;;;;5135193;27;1991;-43
2022/09/28 02:28:13;;;;;;;;;;;;;;;;;;5149648;27;1633;-45
2022/09/28 02:30:41;;;;;;;;;;;;;;;;;;5131189;27;1905;-46
2022/09/28 02:33:19;;;;;;;;;;;;;;;;;;5114513;28;2128;-42
2022/09/28 02:35:46;;;;;;;;;;;;;;;;;;5114594;28;1686;-42
2022/09/28 02:38:15;;;;;;;;;;;;;;;;;;5114532;28;2100;-41
2022/09/28 02:40:53;;;;;;;;;;;;;;;;;;5114259;28;2307;-42
2022/09/28 02:43:42;;;;;;;;;;;;;;;;;;5124102;27;1947;-42
2022/09/28 02:46:21;;;;;;;;;;;;;;;;;;5134746;27;1797;-43
2022/09/28 02:49:14;;;;;;;;;;;;;;;;;;5134611;27;1959;-42
2022/09/28 02:52:09;;;;;;;;;;;;;;;;;;5134847;27;2268;-41
2022/09/28 02:54:56;;;;;;;;;;;;;;;;;;5136504;27;1503;-42
2022/09/28 02:57:42;;;;;;;;;;;;;;;;;;5125485;27;1592;-41
2022/09/28 03:00:21;;;;;;;;;;;;;;;;;;5134567;27;1646;-42
2022/09/28 03:02:56;;;;;;;;;;;;;;;;;;5136020;27;1561;-41
2022/09/28 03:05:30;;;;;;;;;;;;;;;;;;5134395;27;2184;-40
2022/09/28 03:07:58;;;;;;;;;;;;;;;;;;5134445;27;1446;-41
2022/09/28 03:10:42;;;;;;;;;;;;;;;;;;5134355;27;2158;-41
2022/09/28 03:13:11;;;;;;;;;;;;;;;;;;5134617;27;2222;-41
2022/09/28 03:15:39;;;;;;;;;;;;;;;;;;5134236;27;2027;-41
2022/09/28 03:18:10;;;;;;;;;;;;;;;;;;5134223;27;2110;-42
2022/09/28 03:20:38;;;;;;;;;;;;;;;;;;5134221;27;1987;-40
2022/09/28 03:23:06;;;;;;;;;;;;;;;;;;5134454;27;1874;-42
2022/09/28 03:25:51;;;;;;;;;;;;;;;;;;5127347;27;2065;-41
2022/09/28 03:28:20;;;;;;;;;;;;;;;;;;5114949;28;1650;-42
2022/09/28 03:30:48;;;;;;;;;;;;;;;;;;5115942;27;1972;-42
2022/09/28 03:33:15;;;;;;;;;;;;;;;;;;5113694;28;1889;-40
2022/09/28 03:35:45;;;;;;;;;;;;;;;;;;5114547;28;1858;-42
2022/09/28 03:38:13;;;;;;;;;;;;;;;;;;5113519;28;1926;-41
2022/09/28 03:40:42;;;;;;;;;;;;;;;;;;5113049;28;2209;-41
2022/09/28 03:43:10;;;;;;;;;;;;;;;;;;5114604;28;1826;-42
2022/09/28 03:45:38;;;;;;;;;;;;;;;;;;5113539;28;1958;-42
2022/09/28 03:48:06;;;;;;;;;;;;;;;;;;5114843;28;1967;-42
2022/09/28 03:50:33;;;;;;;;;;;;;;;;;;5114765;28;2141;-41
2022/09/28 03:53:01;;;;;;;;;;;;;;;;;;5113258;28;1920;-40
2022/09/28 03:55:29;;;;;;;;;;;;;;;;;;5112926;28;1979;-41
2022/09/28 03:57:57;;;;;;;;;;;;;;;;;;5112532;28;1821;-42
2022/09/28 04:00:24;;;;;;;;;;;;;;;;;;5114196;28;1597;-42
2022/09/28 04:02:52;;;;;;;;;;;;;;;;;;5113035;28;2101;-42
2022/09/28 04:05:19;;;;;;;;;;;;;;;;;;5114376;28;1967;-42
2022/09/28 04:07:47;;;;;;;;;;;;;;;;;;5112888;28;1909;-44
2022/09/28 04:10:14;;;;;;;;;;;;;;;;;;5112811;28;2064;-42
2022/09/28 04:12:41;;;;;;;;;;;;;;;;;;5129798;27;1956;-41
2022/09/28 04:15:09;;;;;;;;;;;;;;;;;;5112366;28;1764;-42
2022/09/28 04:17:37;;;;;;;;;;;;;;;;;;5114170;28;1856;-41
2022/09/28 04:20:14;;;;;;;;;;;;;;;;;;5112450;28;2015;-42
2022/09/28 04:22:57;;;;;;;;;;;;;;;;;;5112274;28;2072;-41
2022/09/28 04:25:24;;;;;;;;;;;;;;;;;;5112345;28;2515;-43
2022/09/28 04:30:37;;;;;;;;;;;;;;;;;;5116940;27;1977;-41
2022/09/28 04:33:05;;;;;;;;;;;;;;;;;;5133009;27;1656;-42
2022/09/28 04:35:32;;;;;;;;;;;;;;;;;;5132869;27;2248;-42
2022/09/28 04:38:00;;;;;;;;;;;;;;;;;;5134281;27;2078;-41
2022/09/28 04:40:29;;;;;;;;;;;;;;;;;;5132569;27;2416;-42
2022/09/28 04:42:56;;;;;;;;;;;;;;;;;;5132851;27;1658;-42
2022/09/28 04:45:27;;;;;;;;;;;;;;;;;;5129192;27;5811;-42
2022/09/28 04:48:01;;;;;;;;;;;;;;;;;;5131820;27;1733;-42
2022/09/28 04:50:55;;;;;;;;;;;;;;;;;;5132286;27;1972;-43
2022/09/28 04:53:23;;;;;;;;;;;;;;;;;;5133952;27;2014;-43
2022/09/28 04:55:57;;;;;;;;;;;;;;;;;;5132259;27;2227;-42
2022/09/28 04:58:25;;;;;;;;;;;;;;;;;;5132481;27;2053;-43
2022/09/28 05:00:56;;;;;;;;;;;;;;;;;;5133845;27;1641;-41
2022/09/28 05:03:55;;;;;;;;;;;;;;;;;;5098980;27;1383;-43
2022/09/28 05:06:46;;;;;;;;;;;;;;;;;;5124858;27;2079;-42
2022/09/28 05:09:14;;;;;;;;;;;;;;;;;;5132224;27;2100;-43
2022/09/28 05:11:42;;;;;;;;;;;;;;;;;;5132232;27;1902;-44
2022/09/28 05:14:15;;;;;;;;;;;;;;;;;;5133526;27;1960;-41
2022/09/28 05:16:43;;;;;;;;;;;;;;;;;;5133328;27;2089;-42
2022/09/28 05:19:16;;;;;;;;;;;;;;;;;;5132782;27;2071;-42
2022/09/28 05:21:44;;;;;;;;;;;;;;;;;;5132221;27;2141;-41
2022/09/28 05:24:11;;;;;;;;;;;;;;;;;;5132114;27;2182;-42
2022/09/28 05:26:40;;;;;;;;;;;;;;;;;;5133431;27;1988;-39
2022/09/28 05:29:08;;;;;;;;;;;;;;;;;;5131924;27;1925;-42
2022/09/28 05:31:54;;;;;;;;;;;;;;;;;;5117834;27;1913;-41
2022/09/28 05:34:54;;;;;;;;;;;;;;;;;;5089258;28;2052;-41
2022/09/28 05:37:28;;;;;;;;;;;;;;;;;;5111234;28;2130;-41
2022/09/28 05:39:56;;;;;;;;;;;;;;;;;;5110336;28;1339;-41
2022/09/28 05:42:24;;;;;;;;;;;;;;;;;;5112073;28;1595;-41
2022/09/28 05:44:52;;;;;;;;;;;;;;;;;;5112498;28;2110;-41
2022/09/28 05:47:19;;;;;;;;;;;;;;;;;;5111284;28;1727;-42
2022/09/28 05:49:46;;;;;;;;;;;;;;;;;;5111410;28;2325;-41
2022/09/28 05:52:13;;;;;;;;;;;;;;;;;;5111238;28;2084;-42
2022/09/28 05:54:41;;;;;;;;;;;;;;;;;;5111087;28;1411;-40
2022/09/28 05:57:08;;;;;;;;;;;;;;;;;;5112840;28;1656;-42
2022/09/28 05:59:35;;;;;;;;;;;;;;;;;;5128745;28;1911;-42
2022/09/28 06:02:03;;;;;;;;;;;;;;;;;;5112513;28;1577;-42
2022/09/28 06:04:30;;;;;;;;;;;;;;;;;;5112446;28;2210;-41
2022/09/28 06:06:58;;;;;;;;;;;;;;;;;;5112530;28;1835;-41
2022/09/28 06:09:26;;;;;;;;;;;;;;;;;;5111306;28;1667;-43
2022/09/28 06:11:53;;;;;;;;;;;;;;;;;;5112480;28;2080;-42
2022/09/28 06:14:34;;;;;;;;;;;;;;;;;;5111270;28;1973;-44
2022/09/28 06:17:02;;;;;;;;;;;;;;;;;;5112085;28;2089;-41
2022/09/28 06:19:29;;;;;;;;;;;;;;;;;;5111172;28;1759;-44
2022/09/28 06:22:15;;;;;;;;;;;;;;;;;;5114244;28;1692;-42
2022/09/28 06:24:53;;;;;;;;;;;;;;;;;;5115051;28;2023;-41
2022/09/28 06:27:23;;;;;;;;;;;;;;;;;;5114766;28;2199;-42
2022/09/28 06:29:50;;;;;;;;;;;;;;;;;;5114601;28;1907;-41
2022/09/28 06:32:18;;;;;;;;;;;;;;;;;;5133746;27;2070;-42
2022/09/28 06:34:48;;;;;;;;;;;;;;;;;;5136489;27;2010;-41
2022/09/28 06:37:19;;;;;;;;;;;;;;;;;;5135032;27;1438;-42
2022/09/28 06:39:47;;;;;;;;;;;;;;;;;;5134515;27;2097;-42
2022/09/28 06:42:16;;;;;;;;;;;;;;;;;;5134348;27;1659;-41
2022/09/28 06:45:20;;;;;;;;;;;;;;;;;;5135351;27;1625;-42
2022/09/28 06:48:07;;;;;;;;;;;;;;;;;;5135305;27;1880;-41
2022/09/28 06:50:39;;;;;;;;;;;;;;;;;;5135134;27;1436;-41
2022/09/28 06:53:24;;;;;;;;;;;;;;;;;;5134788;27;2046;-42
2022/09/28 06:56:01;;;;;;;;;;;;;;;;;;5136145;27;1791;-42
2022/09/28 06:58:30;;;;;;;;;;;;;;;;;;5136300;27;1849;-41
2022/09/28 07:00:58;;;;;;;;;;;;;;;;;;5134649;27;1699;-41
2022/09/28 07:03:28;;;;;;;;;;;;;;;;;;5135997;27;2060;-42
2022/09/28 07:06:17;;;;;;;;;;;;;;;;;;5113999;27;1932;-41
2022/09/28 07:09:07;;;;;;;;;;;;;;;;;;5134716;27;2094;-41
2022/09/28 07:12:09;;;;;;;;;;;;;;;;;;5136109;27;2070;-41
2022/09/28 07:14:59;;;;;;;;;;;;;;;;;;5130057;27;1239;-43
2022/09/28 07:17:27;;;;;;;;;;;;;;;;;;5134203;27;1762;-42
2022/09/28 07:19:57;;;;;;;;;;;;;;;;;;5134421;27;1970;-42
2022/09/28 07:22:34;;;;;;;;;;;;;;;;;;5134518;27;1949;-41
2022/09/28 07:25:13;;;;;;;;;;;;;;;;;;5134445;27;1838;-42
2022/09/28 07:27:59;;;;;;;;;;;;;;;;;;5135439;27;1847;-42
2022/09/28 07:30:41;;;;;;;;;;;;;;;;;;5129451;27;2208;-42
2022/09/28 07:33:16;;;;;;;;;;;;;;;;;;5113642;28;2000;-42
2022/09/28 07:35:55;;;;;;;;;;;;;;;;;;5130843;27;2245;-42
2022/09/28 07:38:26;;;;;;;;;;;;;;;;;;5114419;28;2322;-41
2022/09/28 07:41:10;;;;;;;;;;;;;;;;;;5113306;28;1301;-42
2022/09/28 07:43:44;;;;;;;;;;;;;;;;;;5113474;28;2066;-41
2022/09/28 07:46:11;;;;;;;;;;;;;;;;;;5113319;28;2066;-43
2022/09/28 07:48:48;;;;;;;;;;;;;;;;;;5113227;28;1796;-40
2022/09/28 07:51:23;;;;;;;;;;;;;;;;;;5114447;28;1898;-42
2022/09/28 07:54:13;;;;;;;;;;;;;;;;;;5106269;28;1724;-42
2022/09/28 07:57:10;;;;;;;;;;;;;;;;;;5113177;28;1897;-43
2022/09/28 07:59:48;;;;;;;;;;;;;;;;;;5114379;28;2062;-42
2022/09/28 08:02:39;;;;;;;;;;;;;;;;;;5111422;28;2104;-41
2022/09/28 08:05:08;;;;;;;;;;;;;;;;;;5114654;28;1645;-42
2022/09/28 08:07:37;;;;;;;;;;;;;;;;;;5113225;28;1717;-41
2022/09/28 08:10:11;;;;;;;;;;;;;;;;;;5113147;28;1718;-43
2022/09/28 08:13:17;;;;;;;;;;;;;;;;;;5106127;28;1961;-43
2022/09/28 08:16:02;;;;;;;;;;;;;;;;;;5113488;28;1644;-41
2022/09/28 08:18:49;;;;;;;;;;;;;;;;;;5112767;28;1801;-42
2022/09/28 08:24:02;;;;;;;;;;;;;;;;;;5112437;28;2149;-41
2022/09/28 08:26:30;;;;;;;;;;;;;;;;;;5112689;28;1987;-42
2022/09/28 08:28:57;;;;;;;;;;;;;;;;;;5112272;28;1815;-42
2022/09/28 08:31:41;;;;;;;;;;;;;;;;;;5126233;27;1978;-42
2022/09/28 08:34:30;;;;;;;;;;;;;;;;;;5133001;27;2023;-41
2022/09/28 08:37:08;;;;;;;;;;;;;;;;;;5134364;27;1957;-42
2022/09/28 08:39:37;;;;;;;;;;;;;;;;;;5134631;27;2122;-41
2022/09/28 08:42:34;;;;;;;;;;;;;;;;;;5132912;27;1822;-44
2022/09/28 08:45:32;;;;;;;;;;;;;;;;;;5133849;27;1638;-42
2022/09/28 08:48:43;;;;;;;;;;;;;;;;;;5132765;27;1898;-42
2022/09/28 08:51:58;;;;;;;;;;;;;;;;;;5133290;27;1988;-42
2022/09/28 08:54:55;;;;;;;;;;;;;;;;;;5132569;27;2132;-41
2022/09/28 08:57:36;;;;;;;;;;;;;;;;;;5132430;27;2061;-42
2022/09/28 09:00:05;;;;;;;;;;;;;;;;;;5133674;27;2224;-42
2022/09/28 09:02:38;;;;;;;;;;;;;;;;;;5132879;27;2070;-41
2022/09/28 09:05:17;;;;;;;;;;;;;;;;;;5132345;27;1611;-41
2022/09/28 09:08:06;;;;;;;;;;;;;;;;;;5132376;27;2164;-42
2022/09/28 09:10:53;;;;;;;;;;;;;;;;;;5132270;27;2108;-41
2022/09/28 09:13:38;;;;;;;;;;;;;;;;;;5125918;27;2174;-42
2022/09/28 09:16:06;;;;;;;;;;;;;;;;;;5111888;28;1965;-40
2022/09/28 09:19:15;;;;;;;;;;;;;;;;;;5112565;28;1708;-42
2022/09/28 09:22:08;;;;;;;;;;;;;;;;;;5111831;28;2063;-42
2022/09/28 09:24:39;;;;;;;;;;;;;;;;;;5111679;28;1535;-42
2022/09/28 09:27:10;;;;;;;;;;;;;;;;;;5113322;28;1929;-42
2022/09/28 09:29:47;;;;;;;;;;;;;;;;;;5111902;28;1687;-41
2022/09/28 09:32:30;;;;;;;;;;;;;;;;;;5129826;27;2056;-42
2022/09/28 09:35:00;;;;;;;;;;;;;;;;;;5133042;28;2027;-41
2022/09/28 09:37:46;;;;;;;;;;;;;;;;;;5133424;28;1999;-42
2022/09/28 09:40:41;;;;;;;;;;;;;;;;;;5133255;28;1762;-41
2022/09/28 09:43:30;;;;;;;;;;;;;;;;;;5133285;28;1544;-40
2022/09/28 09:46:36;;;;;;;;;;;;;;;;;;5132081;28;2412;-40
2022/09/28 09:49:36;;;;;;;;;;;;;;;;;;5111570;27;1588;-40
2022/09/28 09:52:22;;;;;;;;;;;;;;;;;;5131956;28;2240;-41
2022/09/28 09:55:00;;;;;;;;;;;;;;;;;;5131813;28;1974;-43
2022/09/28 09:57:41;;;;;;;;;;;;;;;;;;5134266;27;2356;-43
2022/09/28 10:00:28;;;;;;;;;;;;;;;;;;5136117;27;1779;-41
2022/09/28 10:03:16;;;;;;;;;;;;;;;;;;5136214;27;1505;-42
2022/09/28 10:05:47;;;;;;;;;;;;;;;;;;5136074;27;1676;-42
2022/09/28 10:08:16;;;;;;;;;;;;;;;;;;5135898;27;1842;-41
2022/09/28 10:10:49;;;;;;;;;;;;;;;;;;5135744;27;2158;-42
2022/09/28 10:13:18;;;;;;;;;;;;;;;;;;5136922;27;2141;-42
2022/09/28 10:15:47;;;;;;;;;;;;;;;;;;5135534;27;1957;-42
2022/09/28 10:18:24;;;;;;;;;;;;;;;;;;5135521;27;1838;-41
2022/09/28 10:21:12;;;;;;;;;;;;;;;;;;5137208;27;1829;-43
2022/09/28 10:23:49;;;;;;;;;;;;;;;;;;5135647;27;2202;-44
2022/09/28 10:26:23;;;;;;;;;;;;;;;;;;5135507;27;2216;-41
2022/09/28 10:29:00;;;;;;;;;;;;;;;;;;5135517;27;2038;-42
2022/09/28 10:31:44;;;;;;;;;;;;;;;;;;5124921;27;2101;-42
2022/09/28 10:34:27;;;;;;;;;;;;;;;;;;5114776;28;1468;-42
2022/09/28 10:37:02;;;;;;;;;;;;;;;;;;5114685;28;1967;-42
2022/09/28 10:39:52;;;;;;;;;;;;;;;;;;5114408;28;2337;-42
2022/09/28 10:42:30;;;;;;;;;;;;;;;;;;5114778;28;1841;-41
2022/09/28 10:45:04;;;;;;;;;;;;;;;;;;5114498;28;2133;-42
2022/09/28 10:47:34;;;;;;;;;;;;;;;;;;5115814;28;1740;-41
2022/09/28 10:50:13;;;;;;;;;;;;;;;;;;5114271;28;2255;-41
2022/09/28 10:52:43;;;;;;;;;;;;;;;;;;5114663;28;1982;-41
2022/09/28 10:55:29;;;;;;;;;;;;;;;;;;5114352;28;1856;-42
2022/09/28 10:57:58;;;;;;;;;;;;;;;;;;5114194;28;1681;-41
2022/09/28 11:00:42;;;;;;;;;;;;;;;;;;5114230;28;1784;-42
2022/09/28 11:03:22;;;;;;;;;;;;;;;;;;5114086;28;2087;-42
2022/09/28 11:06:04;;;;;;;;;;;;;;;;;;5115529;28;1816;-41
2022/09/28 11:08:35;;;;;;;;;;;;;;;;;;5115105;28;2238;-42
2022/09/28 11:11:03;;;;;;;;;;;;;;;;;;5114072;28;1903;-42
2022/09/28 11:13:36;;;;;;;;;;;;;;;;;;5114075;28;2152;-43
2022/09/28 11:16:06;;;;;;;;;;;;;;;;;;5113903;28;2365;-42
2022/09/28 11:18:36;;;;;;;;;;;;;;;;;;5115423;28;2003;-42
2022/09/28 11:21:12;;;;;;;;;;;;;;;;;;5115299;28;2030;-42
2022/09/28 11:23:56;;;;;;;;;;;;;;;;;;5113893;28;1616;-42
2022/09/28 11:26:23;;;;;;;;;;;;;;;;;;5113967;28;2023;-42
2022/09/28 11:28:52;;;;;;;;;;;;;;;;;;5113796;28;1635;-42
2022/09/28 11:31:30;;;;;;;;;;;;;;;;;;5126913;27;1937;-43
2022/09/28 11:34:12;;;;;;;;;;;;;;;;;;5134118;27;1905;-43
2022/09/28 11:37:26;;;;;;;;;;;;;;;;;;5134951;27;2060;-42
2022/09/28 11:40:15;;;;;;;;;;;;;;;;;;5132060;27;1879;-43
2022/09/28 11:42:42;;;;;;;;;;;;;;;;;;5135114;27;2007;-43
2022/09/28 11:45:29;;;;;;;;;;;;;;;;;;5134367;27;2044;-43
2022/09/28 11:48:15;;;;;;;;;;;;;;;;;;5134117;27;1830;-44
2022/09/28 11:50:47;;;;;;;;;;;;;;;;;;5133425;27;2086;-43
2022/09/28 11:53:33;;;;;;;;;;;;;;;;;;5133832;27;1901;-42
2022/09/28 11:56:20;;;;;;;;;;;;;;;;;;5135175;27;2230;-42
2022/09/28 11:58:56;;;;;;;;;;;;;;;;;;5133439;27;2452;-43
2022/09/28 12:01:46;;;;;;;;;;;;;;;;;;5149608;27;1986;-42
2022/09/28 12:04:30;;;;;;;;;;;;;;;;;;5133627;27;2101;-43
2022/09/28 12:07:02;;;;;;;;;;;;;;;;;;5133554;27;1828;-43
2022/09/28 12:09:49;;;;;;;;;;;;;;;;;;5133411;27;1976;-42
2022/09/28 12:12:24;;;;;;;;;;;;;;;;;;5133413;27;2088;-41
2022/09/28 12:14:57;;;;;;;;;;;;;;;;;;5133231;27;2025;-42
2022/09/28 12:17:37;;;;;;;;;;;;;;;;;;5134572;27;2191;-42
2022/09/28 12:20:25;;;;;;;;;;;;;;;;;;5133965;27;2207;-43
2022/09/28 12:23:04;;;;;;;;;;;;;;;;;;5134645;27;1736;-40
2022/09/28 12:25:40;;;;;;;;;;;;;;;;;;5134501;27;1961;-41
2022/09/28 12:28:26;;;;;;;;;;;;;;;;;;5133331;27;2205;-43
2022/09/28 12:30:53;;;;;;;;;;;;;;;;;;5126990;27;2017;-42
2022/09/28 12:33:21;;;;;;;;;;;;;;;;;;5113704;28;2031;-42
2022/09/28 12:36:01;;;;;;;;;;;;;;;;;;5113639;28;2366;-43
2022/09/28 12:38:47;;;;;;;;;;;;;;;;;;5113608;28;1797;-42
2022/09/28 12:41:43;;;;;;;;;;;;;;;;;;5113573;28;1664;-42
2022/09/28 12:44:23;;;;;;;;;;;;;;;;;;5113840;28;2275;-42
2022/09/28 12:46:56;;;;;;;;;;;;;;;;;;5113251;28;1578;-41
2022/09/28 12:49:29;;;;;;;;;;;;;;;;;;5113347;28;1915;-41
2022/09/28 12:52:17;;;;;;;;;;;;;;;;;;5113522;28;1659;-43
2022/09/28 12:54:58;;;;;;;;;;;;;;;;;;5113368;28;1655;-43
2022/09/28 12:57:44;;;;;;;;;;;;;;;;;;5112912;28;1942;-42
2022/09/28 13:00:22;;;;;;;;;;;;;;;;;;5113636;28;1940;-41
2022/09/28 13:03:06;;;;;;;;;;;;;;;;;;5113207;28;1819;-42
2022/09/28 13:05:44;;;;;;;;;;;;;;;;;;5125529;27;1546;-42
2022/09/28 13:08:11;;;;;;;;;;;;;;;;;;5133154;27;1881;-39
2022/09/28 13:10:38;;;;;;;;;;;;;;;;;;5133013;27;1209;-41
2022/09/28 13:13:05;;;;;;;;;;;;;;;;;;5133347;27;1950;-43
2022/09/28 13:15:36;;;;;;;;;;;;;;;;;;5132944;27;2166;-41
2022/09/28 13:18:12;;;;;;;;;;;;;;;;;;5132912;27;1651;-44
2022/09/28 13:20:42;;;;;;;;;;;;;;;;;;5133947;27;1959;-41
2022/09/28 13:23:32;;;;;;;;;;;;;;;;;;5133262;27;1595;-42
2022/09/28 13:26:16;;;;;;;;;;;;;;;;;;5132823;27;2114;-44
2022/09/28 13:28:44;;;;;;;;;;;;;;;;;;5131412;27;2028;-42
2022/09/28 13:31:15;;;;;;;;;;;;;;;;;;5121700;27;2098;-42
2022/09/28 13:33:44;;;;;;;;;;;;;;;;;;5110093;28;1929;-43
2022/09/28 13:36:26;;;;;;;;;;;;;;;;;;5111410;28;1979;-43
2022/09/28 13:38:54;;;;;;;;;;;;;;;;;;5112460;28;2101;-42
2022/09/28 13:41:27;;;;;;;;;;;;;;;;;;5112133;28;1967;-41
2022/09/28 13:44:01;;;;;;;;;;;;;;;;;;5112387;28;1755;-42
2022/09/28 13:46:29;;;;;;;;;;;;;;;;;;5111225;28;1826;-42
2022/09/28 13:49:04;;;;;;;;;;;;;;;;;;5112002;28;1588;-41
2022/09/28 13:51:48;;;;;;;;;;;;;;;;;;5112200;28;1533;-42
2022/09/28 13:54:16;;;;;;;;;;;;;;;;;;5110917;28;2173;-44
2022/09/28 13:56:54;;;;;;;;;;;;;;;;;;5112310;28;1374;-43
2022/09/28 13:59:27;;;;;;;;;;;;;;;;;;5111574;28;1794;-42
2022/09/28 14:01:58;;;;;;;;;;;;;;;;;;5112550;28;2038;-44
2022/09/28 14:04:48;;;;;;;;;;;;;;;;;;5112627;28;2014;-42
2022/09/28 14:07:25;;;;;;;;;;;;;;;;;;5112208;28;1724;-42
2022/09/28 14:10:12;;;;;;;;;;;;;;;;;;5112086;28;1931;-45
2022/09/28 14:12:39;;;;;;;;;;;;;;;;;;5111085;28;1913;-44
2022/09/28 14:15:26;;;;;;;;;;;;;;;;;;5110920;28;2066;-42
2022/09/28 14:18:17;;;;;;;;;;;;;;;;;;5111804;28;2092;-39
2022/09/28 14:20:54;;;;;;;;;;;;;;;;;;5104373;28;2238;-41
2022/09/28 14:23:28;;;;;;;;;;;;;;;;;;5112050;28;1624;-41
2022/09/28 14:26:18;;;;;;;;;;;;;;;;;;5112385;28;1883;-49
2022/09/28 14:29:04;;;;;;;;;;;;;;;;;;5112105;28;2024;-40
2022/09/28 14:31:39;;;;;;;;;;;;;;;;;;5111420;28;1964;-42
2022/09/28 14:34:21;;;;;;;;;;;;;;;;;;5111511;28;1980;-42
2022/09/28 14:42:23;;;;;;;;;;;;;;;;;;5111687;28;1615;-41
2022/09/28 14:45:02;;;;;;;;;;;;;;;;;;5114372;27;2104;-42
2022/09/28 14:47:34;;;;;;;;;;;;;;;;;;5114281;28;1750;-43
2022/09/28 14:50:16;;;;;;;;;;;;;;;;;;5114923;27;1785;-44
2022/09/28 14:52:51;;;;;;;;;;;;;;;;;;5125749;27;1820;-41
2022/09/28 14:55:34;;;;;;;;;;;;;;;;;;5114319;28;1887;-41
2022/09/28 14:58:01;;;;;;;;;;;;;;;;;;5129423;27;2110;-41
2022/09/28 15:00:30;;;;;;;;;;;;;;;;;;5125300;27;1914;-40
2022/09/28 15:02:59;;;;;;;;;;;;;;;;;;5125795;27;2139;-42
2022/09/28 15:05:28;;;;;;;;;;;;;;;;;;5119887;27;1823;-42
2022/09/28 15:07:56;;;;;;;;;;;;;;;;;;5127027;27;1653;-42
2022/09/28 15:10:27;;;;;;;;;;;;;;;;;;5132744;27;1413;-41
2022/09/28 15:12:55;;;;;;;;;;;;;;;;;;5134231;27;1873;-44
2022/09/28 15:15:28;;;;;;;;;;;;;;;;;;5131033;27;2023;-44
2022/09/28 15:18:19;;;;;;;;;;;;;;;;;;5113962;28;2141;-43
2022/09/28 15:20:49;;;;;;;;;;;;;;;;;;5110504;28;1861;-42
2022/09/28 15:23:25;;;;;;;;;;;;;;;;;;5113199;28;2000;-42
2022/09/28 15:25:53;;;;;;;;;;;;;;;;;;5113859;28;1910;-42
2022/09/28 15:28:22;;;;;;;;;;;;;;;;;;5113580;28;1698;-43
2022/09/28 15:30:50;;;;;;;;;;;;;;;;;;5119872;27;2319;-42
2022/09/28 15:36:20;;;;;;;;;;;;;;;;;;5134113;27;1864;-44
2022/09/28 15:38:54;;;;;;;;;;;;;;;;;;5114444;28;2096;-43
2022/09/28 15:41:24;;;;;;;;;;;;;;;;;;5114669;28;1689;-45
2022/09/28 15:44:05;;;;;;;;;;;;;;;;;;5114721;28;1849;-43
2022/09/28 15:46:41;;;;;;;;;;;;;;;;;;5114412;28;1471;-39
2022/09/28 15:49:32;;;;;;;;;;;;;;;;;;5114365;28;1859;-40
2022/09/28 15:52:04;;;;;;;;;;;;;;;;;;5108664;28;1619;-39
2022/09/28 15:54:43;;;;;;;;;;;;;;;;;;5112700;28;2071;-43
2022/09/28 15:57:39;;;;;;;;;;;;;;;;;;5114587;28;1915;-40
2022/09/28 16:00:27;;;;;;;;;;;;;;;;;;5101566;28;1700;-42
2022/09/28 16:02:59;;;;;;;;;;;;;;;;;;5114444;28;1609;-41
2022/09/28 16:05:34;;;;;;;;;;;;;;;;;;5112846;28;1927;-44
2022/09/28 16:08:03;;;;;;;;;;;;;;;;;;5112711;28;2100;-43
2022/09/28 16:10:34;;;;;;;;;;;;;;;;;;5112689;28;1945;-42
2022/09/28 16:13:14;;;;;;;;;;;;;;;;;;5113709;28;1988;-42
2022/09/28 16:15:41;;;;;;;;;;;;;;;;;;5114808;27;2314;-43
2022/09/28 16:18:12;;;;;;;;;;;;;;;;;;5128769;27;1955;-45
2022/09/28 16:20:40;;;;;;;;;;;;;;;;;;5134158;27;2046;-43
2022/09/28 16:23:21;;;;;;;;;;;;;;;;;;5132752;27;2088;-42
2022/09/28 16:26:11;;;;;;;;;;;;;;;;;;5132947;27;1903;-43
2022/09/28 16:28:38;;;;;;;;;;;;;;;;;;5133162;27;1785;-43
2022/09/28 16:31:15;;;;;;;;;;;;;;;;;;5117897;27;1983;-43
2022/09/28 16:33:45;;;;;;;;;;;;;;;;;;5111806;28;2046;-43
2022/09/28 16:36:14;;;;;;;;;;;;;;;;;;5113174;27;1735;-42
2022/09/28 16:38:45;;;;;;;;;;;;;;;;;;5132565;27;1978;-42
2022/09/28 16:41:16;;;;;;;;;;;;;;;;;;5134367;27;1361;-45
2022/09/28 16:43:45;;;;;;;;;;;;;;;;;;5133911;27;1769;-42
2022/09/28 16:46:14;;;;;;;;;;;;;;;;;;5134142;27;1554;-43
2022/09/28 16:48:49;;;;;;;;;;;;;;;;;;5134051;27;1657;-43
2022/09/28 16:51:17;;;;;;;;;;;;;;;;;;5134110;27;1925;-42
2022/09/28 16:56:31;;;;;;;;;;;;;;;;;;5134083;27;1411;-42
2022/09/28 16:58:58;;;;;;;;;;;;;;;;;;5133476;27;1490;-43
2022/09/28 17:01:31;;;;;;;;;;;;;;;;;;5133923;27;1895;-45
2022/09/28 17:04:00;;;;;;;;;;;;;;;;;;5133492;27;1914;-42
2022/09/28 17:06:27;;;;;;;;;;;;;;;;;;5124609;27;2195;-41
2022/09/28 17:08:55;;;;;;;;;;;;;;;;;;5119705;27;1625;-42
2022/09/28 17:11:22;;;;;;;;;;;;;;;;;;5119919;27;2144;-41
2022/09/28 17:13:57;;;;;;;;;;;;;;;;;;5113295;28;2005;-43
2022/09/28 17:16:27;;;;;;;;;;;;;;;;;;5112441;28;1805;-43
2022/09/28 17:19:22;;;;;;;;;;;;;;;;;;5132807;27;1613;-42
2022/09/28 17:21:52;;;;;;;;;;;;;;;;;;5133562;27;1897;-43
2022/09/28 17:24:19;;;;;;;;;;;;;;;;;;5133679;27;1869;-42
2022/09/28 17:26:48;;;;;;;;;;;;;;;;;;5133285;27;1930;-43
2022/09/28 17:29:18;;;;;;;;;;;;;;;;;;5133542;27;1589;-42
2022/09/28 17:31:47;;;;;;;;;;;;;;;;;;5119210;27;1894;-44
2022/09/28 17:34:15;;;;;;;;;;;;;;;;;;5112596;28;2067;-42
2022/09/28 17:36:42;;;;;;;;;;;;;;;;;;5111737;28;1814;-43
2022/09/28 17:39:14;;;;;;;;;;;;;;;;;;5111569;28;2110;-42
2022/09/28 17:41:41;;;;;;;;;;;;;;;;;;5112711;28;1625;-41
2022/09/28 17:44:09;;;;;;;;;;;;;;;;;;5112868;28;1924;-41
2022/09/28 17:46:39;;;;;;;;;;;;;;;;;;5112308;28;2112;-41
2022/09/28 17:49:09;;;;;;;;;;;;;;;;;;5112630;28;1772;-42
2022/09/28 17:51:37;;;;;;;;;;;;;;;;;;5112415;28;1650;-45
2022/09/28 17:54:05;;;;;;;;;;;;;;;;;;5111332;28;1973;-42
2022/09/28 17:56:35;;;;;;;;;;;;;;;;;;5112718;28;1804;-39
2022/09/28 17:59:09;;;;;;;;;;;;;;;;;;5111011;28;1654;-46
2022/09/28 18:01:37;;;;;;;;;;;;;;;;;;5112616;28;1875;-39
2022/09/28 18:04:06;;;;;;;;;;;;;;;;;;5112706;28;1953;-40
2022/09/28 18:06:35;;;;;;;;;;;;;;;;;;5112597;28;1930;-43
2022/09/28 18:09:07;;;;;;;;;;;;;;;;;;5112147;28;1557;-42
2022/09/28 18:11:41;;;;;;;;;;;;;;;;;;5112513;28;1788;-44
2022/09/28 18:14:09;;;;;;;;;;;;;;;;;;5112651;28;1938;-43
2022/09/28 18:16:39;;;;;;;;;;;;;;;;;;5112601;28;1634;-42